sensor_id;sensor_type;location;lat;lon;timestamp;P1;durP1;ratioP1;P2;durP2;ratioP2
37677;SDS011;23517;50.390;8.616;2022-10-31T00:01:18;12.23;;;3.10;;
37677;SDS011;23517;50.390;8.616;2022-10-31T00:03:49;11.85;;;3.10;;
37677;SDS011;23517;50.390;8.616;2022-10-31T00:06:16;16.70;;;3.33;;
37677;SDS011;23517;50.390;8.616;2022-10-31T00:08:46;11.82;;;2.85;;
37677;SDS011;23517;50.390;8.616;2022-10-31T00:11:17;14.88;;;4.22;;
37677;SDS011;23517;50.390;8.616;2022-10-31T00:13:43;9.18;;;3.25;;
37677;SDS011;23517;50.390;8.616;2022-10-31T00:16:17;16.27;;;3.70;;
37677;SDS011;23517;50.390;8.616;2022-10-31T00:18:48;6.65;;;3.15;;
37677;SDS011;23517;50.390;8.616;2022-10-31T00:21:16;11.32;;;3.63;;
37677;SDS011;23517;50.390;8.616;2022-10-31T00:23:44;11.18;;;3.42;;
37677;SDS011;23517;50.390;8.616;2022-10-31T00:26:11;11.52;;;3.05;;
37677;SDS011;23517;50.390;8.616;2022-10-31T00:28:38;12.98;;;3.03;;
37677;SDS011;23517;50.390;8.616;2022-10-31T00:31:06;12.93;;;2.65;;
37677;SDS011;23517;50.390;8.616;2022-10-31T00:33:36;9.10;;;2.95;;
37677;SDS011;23517;50.390;8.616;2022-10-31T00:36:04;10.55;;;3.03;;
37677;SDS011;23517;50.390;8.616;2022-10-31T00:38:33;15.68;;;4.38;;
37677;SDS011;23517;50.390;8.616;2022-10-31T00:40:59;10.85;;;2.72;;
37677;SDS011;23517;50.390;8.616;2022-10-31T00:43:26;8.32;;;3.00;;
37677;SDS011;23517;50.390;8.616;2022-10-31T00:45:52;10.43;;;2.80;;
37677;SDS011;23517;50.390;8.616;2022-10-31T00:48:19;17.08;;;3.40;;
37677;SDS011;23517;50.390;8.616;2022-10-31T00:50:45;12.50;;;3.15;;
37677;SDS011;23517;50.390;8.616;2022-10-31T00:53:12;12.05;;;3.25;;
37677;SDS011;23517;50.390;8.616;2022-10-31T00:55:39;9.80;;;2.95;;
37677;SDS011;23517;50.390;8.616;2022-10-31T00:58:05;10.63;;;3.00;;
37677;SDS011;23517;50.390;8.616;2022-10-31T01:00:32;9.23;;;3.00;;
37677;SDS011;23517;50.390;8.616;2022-10-31T01:02:59;9.75;;;3.08;;
37677;SDS011;23517;50.390;8.616;2022-10-31T01:05:26;11.55;;;3.50;;
37677;SDS011;23517;50.390;8.616;2022-10-31T01:07:53;9.88;;;3.70;;
37677;SDS011;23517;50.390;8.616;2022-10-31T01:10:19;12.25;;;3.25;;
37677;SDS011;23517;50.390;8.616;2022-10-31T01:12:47;10.27;;;3.50;;
37677;SDS011;23517;50.390;8.616;2022-10-31T01:15:16;10.48;;;2.70;;
37677;SDS011;23517;50.390;8.616;2022-10-31T01:17:47;11.38;;;3.88;;
37677;SDS011;23517;50.390;8.616;2022-10-31T01:20:14;13.45;;;2.75;;
37677;SDS011;23517;50.390;8.616;2022-10-31T01:22:42;8.77;;;3.03;;
37677;SDS011;23517;50.390;8.616;2022-10-31T01:25:09;8.85;;;3.63;;
37677;SDS011;23517;50.390;8.616;2022-10-31T01:27:38;9.35;;;3.30;;
37677;SDS011;23517;50.390;8.616;2022-10-31T01:30:04;10.98;;;3.10;;
37677;SDS011;23517;50.390;8.616;2022-10-31T01:32:32;15.25;;;3.20;;
37677;SDS011;23517;50.390;8.616;2022-10-31T01:34:58;11.70;;;3.17;;
37677;SDS011;23517;50.390;8.616;2022-10-31T01:37:25;12.40;;;3.08;;
37677;SDS011;23517;50.390;8.616;2022-10-31T01:39:52;9.63;;;3.05;;
37677;SDS011;23517;50.390;8.616;2022-10-31T01:42:19;10.02;;;3.45;;
37677;SDS011;23517;50.390;8.616;2022-10-31T01:44:50;13.10;;;3.60;;
37677;SDS011;23517;50.390;8.616;2022-10-31T01:47:19;11.82;;;3.28;;
37677;SDS011;23517;50.390;8.616;2022-10-31T01:49:56;12.10;;;3.40;;
37677;SDS011;23517;50.390;8.616;2022-10-31T01:54:59;11.15;;;3.30;;
37677;SDS011;23517;50.390;8.616;2022-10-31T01:57:30;11.18;;;3.22;;
37677;SDS011;23517;50.390;8.616;2022-10-31T02:00:00;12.10;;;3.33;;
37677;SDS011;23517;50.390;8.616;2022-10-31T02:02:31;23.17;;;3.33;;
37677;SDS011;23517;50.390;8.616;2022-10-31T02:04:58;15.50;;;3.50;;
37677;SDS011;23517;50.390;8.616;2022-10-31T02:07:33;10.95;;;3.40;;
37677;SDS011;23517;50.390;8.616;2022-10-31T02:10:07;8.27;;;2.80;;
37677;SDS011;23517;50.390;8.616;2022-10-31T02:12:33;11.13;;;3.40;;
37677;SDS011;23517;50.390;8.616;2022-10-31T02:15:02;15.35;;;3.58;;
37677;SDS011;23517;50.390;8.616;2022-10-31T02:17:30;9.43;;;3.33;;
37677;SDS011;23517;50.390;8.616;2022-10-31T02:20:08;11.10;;;3.47;;
37677;SDS011;23517;50.390;8.616;2022-10-31T02:28:52;7.40;;;3.20;;
37677;SDS011;23517;50.390;8.616;2022-10-31T02:32:00;16.80;;;3.47;;
37677;SDS011;23517;50.390;8.616;2022-10-31T02:34:36;12.95;;;3.15;;
37677;SDS011;23517;50.390;8.616;2022-10-31T02:37:25;12.88;;;3.33;;
37677;SDS011;23517;50.390;8.616;2022-10-31T02:40:12;10.88;;;3.35;;
37677;SDS011;23517;50.390;8.616;2022-10-31T02:43:06;11.95;;;3.17;;
37677;SDS011;23517;50.390;8.616;2022-10-31T02:48:28;13.02;;;2.95;;
37677;SDS011;23517;50.390;8.616;2022-10-31T02:50:57;13.70;;;3.25;;
37677;SDS011;23517;50.390;8.616;2022-10-31T02:53:31;12.75;;;3.53;;
37677;SDS011;23517;50.390;8.616;2022-10-31T02:56:11;11.95;;;3.63;;
37677;SDS011;23517;50.390;8.616;2022-10-31T02:58:49;7.13;;;3.50;;
37677;SDS011;23517;50.390;8.616;2022-10-31T03:04:44;15.85;;;3.60;;
37677;SDS011;23517;50.390;8.616;2022-10-31T03:07:46;11.38;;;3.47;;
37677;SDS011;23517;50.390;8.616;2022-10-31T03:11:12;8.23;;;3.35;;
37677;SDS011;23517;50.390;8.616;2022-10-31T03:16:46;10.27;;;3.65;;
37677;SDS011;23517;50.390;8.616;2022-10-31T03:21:54;18.20;;;3.78;;
37677;SDS011;23517;50.390;8.616;2022-10-31T03:24:36;8.80;;;3.75;;
37677;SDS011;23517;50.390;8.616;2022-10-31T03:27:05;16.23;;;3.25;;
37677;SDS011;23517;50.390;8.616;2022-10-31T03:29:36;9.38;;;3.42;;
37677;SDS011;23517;50.390;8.616;2022-10-31T03:32:22;16.90;;;3.45;;
37677;SDS011;23517;50.390;8.616;2022-10-31T03:34:59;10.32;;;3.53;;
37677;SDS011;23517;50.390;8.616;2022-10-31T03:37:29;7.55;;;3.35;;
37677;SDS011;23517;50.390;8.616;2022-10-31T03:39:59;12.00;;;3.70;;
37677;SDS011;23517;50.390;8.616;2022-10-31T03:42:29;11.40;;;3.63;;
37677;SDS011;23517;50.390;8.616;2022-10-31T03:45:05;8.82;;;3.65;;
37677;SDS011;23517;50.390;8.616;2022-10-31T03:47:38;8.30;;;3.30;;
37677;SDS011;23517;50.390;8.616;2022-10-31T03:50:06;12.18;;;4.13;;
37677;SDS011;23517;50.390;8.616;2022-10-31T03:55:17;12.10;;;4.18;;
37677;SDS011;23517;50.390;8.616;2022-10-31T03:57:48;7.70;;;3.33;;
37677;SDS011;23517;50.390;8.616;2022-10-31T04:00:34;9.32;;;3.30;;
37677;SDS011;23517;50.390;8.616;2022-10-31T04:03:38;14.18;;;3.42;;
37677;SDS011;23517;50.390;8.616;2022-10-31T04:06:03;14.30;;;3.85;;
37677;SDS011;23517;50.390;8.616;2022-10-31T04:08:38;18.27;;;3.53;;
37677;SDS011;23517;50.390;8.616;2022-10-31T04:11:15;9.90;;;3.20;;
37677;SDS011;23517;50.390;8.616;2022-10-31T04:13:45;9.10;;;3.53;;
37677;SDS011;23517;50.390;8.616;2022-10-31T04:16:14;16.63;;;3.72;;
37677;SDS011;23517;50.390;8.616;2022-10-31T04:18:42;7.13;;;3.00;;
37677;SDS011;23517;50.390;8.616;2022-10-31T04:21:10;8.70;;;3.42;;
37677;SDS011;23517;50.390;8.616;2022-10-31T04:23:37;7.43;;;3.30;;
37677;SDS011;23517;50.390;8.616;2022-10-31T04:26:04;9.32;;;3.58;;
37677;SDS011;23517;50.390;8.616;2022-10-31T04:28:32;11.38;;;4.05;;
37677;SDS011;23517;50.390;8.616;2022-10-31T04:30:59;16.05;;;4.55;;
37677;SDS011;23517;50.390;8.616;2022-10-31T04:33:26;8.88;;;4.63;;
37677;SDS011;23517;50.390;8.616;2022-10-31T04:35:53;13.25;;;4.95;;
37677;SDS011;23517;50.390;8.616;2022-10-31T04:38:19;8.35;;;4.47;;
37677;SDS011;23517;50.390;8.616;2022-10-31T04:40:46;10.77;;;4.50;;
37677;SDS011;23517;50.390;8.616;2022-10-31T04:43:13;8.90;;;3.97;;
37677;SDS011;23517;50.390;8.616;2022-10-31T04:45:39;7.93;;;4.22;;
37677;SDS011;23517;50.390;8.616;2022-10-31T04:48:06;11.98;;;4.32;;
37677;SDS011;23517;50.390;8.616;2022-10-31T04:50:32;10.80;;;4.10;;
37677;SDS011;23517;50.390;8.616;2022-10-31T04:52:59;8.00;;;3.97;;
37677;SDS011;23517;50.390;8.616;2022-10-31T04:55:26;17.98;;;4.65;;
37677;SDS011;23517;50.390;8.616;2022-10-31T04:57:52;12.07;;;4.65;;
37677;SDS011;23517;50.390;8.616;2022-10-31T05:00:20;9.50;;;4.20;;
37677;SDS011;23517;50.390;8.616;2022-10-31T05:02:52;12.10;;;4.32;;
37677;SDS011;23517;50.390;8.616;2022-10-31T05:05:26;10.48;;;4.40;;
37677;SDS011;23517;50.390;8.616;2022-10-31T05:07:56;8.60;;;4.57;;
37677;SDS011;23517;50.390;8.616;2022-10-31T05:10:25;8.82;;;4.15;;
37677;SDS011;23517;50.390;8.616;2022-10-31T05:12:55;13.38;;;4.25;;
37677;SDS011;23517;50.390;8.616;2022-10-31T05:15:25;9.13;;;4.32;;
37677;SDS011;23517;50.390;8.616;2022-10-31T05:17:53;12.93;;;4.20;;
37677;SDS011;23517;50.390;8.616;2022-10-31T05:20:22;9.77;;;4.15;;
37677;SDS011;23517;50.390;8.616;2022-10-31T05:22:55;15.45;;;4.90;;
37677;SDS011;23517;50.390;8.616;2022-10-31T05:25:25;12.68;;;4.72;;
37677;SDS011;23517;50.390;8.616;2022-10-31T05:27:53;15.15;;;4.22;;
37677;SDS011;23517;50.390;8.616;2022-10-31T05:30:23;10.52;;;3.45;;
37677;SDS011;23517;50.390;8.616;2022-10-31T05:32:53;7.10;;;4.32;;
37677;SDS011;23517;50.390;8.616;2022-10-31T05:35:21;8.43;;;3.67;;
37677;SDS011;23517;50.390;8.616;2022-10-31T05:37:51;10.50;;;3.47;;
37677;SDS011;23517;50.390;8.616;2022-10-31T05:40:18;14.38;;;4.07;;
37677;SDS011;23517;50.390;8.616;2022-10-31T05:42:47;8.93;;;3.55;;
37677;SDS011;23517;50.390;8.616;2022-10-31T05:45:18;12.52;;;4.10;;
37677;SDS011;23517;50.390;8.616;2022-10-31T05:47:55;10.00;;;3.50;;
37677;SDS011;23517;50.390;8.616;2022-10-31T05:50:28;15.82;;;4.18;;
37677;SDS011;23517;50.390;8.616;2022-10-31T05:53:00;10.57;;;3.53;;
37677;SDS011;23517;50.390;8.616;2022-10-31T05:55:30;9.10;;;3.63;;
37677;SDS011;23517;50.390;8.616;2022-10-31T05:57:57;6.78;;;3.80;;
37677;SDS011;23517;50.390;8.616;2022-10-31T06:00:25;22.42;;;4.78;;
37677;SDS011;23517;50.390;8.616;2022-10-31T06:03:02;9.73;;;3.65;;
37677;SDS011;23517;50.390;8.616;2022-10-31T06:05:32;10.77;;;3.53;;
37677;SDS011;23517;50.390;8.616;2022-10-31T06:07:59;10.40;;;3.85;;
37677;SDS011;23517;50.390;8.616;2022-10-31T06:10:26;9.55;;;3.90;;
37677;SDS011;23517;50.390;8.616;2022-10-31T06:12:53;13.02;;;3.85;;
37677;SDS011;23517;50.390;8.616;2022-10-31T06:15:20;16.67;;;4.40;;
37677;SDS011;23517;50.390;8.616;2022-10-31T06:17:59;13.80;;;4.55;;
37677;SDS011;23517;50.390;8.616;2022-10-31T06:20:31;8.45;;;3.97;;
37677;SDS011;23517;50.390;8.616;2022-10-31T06:22:59;13.13;;;3.67;;
37677;SDS011;23517;50.390;8.616;2022-10-31T06:25:26;15.05;;;4.07;;
37677;SDS011;23517;50.390;8.616;2022-10-31T06:27:54;11.85;;;3.95;;
37677;SDS011;23517;50.390;8.616;2022-10-31T06:30:22;11.13;;;4.22;;
37677;SDS011;23517;50.390;8.616;2022-10-31T06:32:48;9.88;;;4.13;;
37677;SDS011;23517;50.390;8.616;2022-10-31T06:35:15;14.07;;;4.53;;
37677;SDS011;23517;50.390;8.616;2022-10-31T06:37:43;11.93;;;4.25;;
37677;SDS011;23517;50.390;8.616;2022-10-31T06:40:17;13.30;;;5.13;;
37677;SDS011;23517;50.390;8.616;2022-10-31T06:42:43;12.40;;;5.00;;
37677;SDS011;23517;50.390;8.616;2022-10-31T06:45:10;16.90;;;4.63;;
37677;SDS011;23517;50.390;8.616;2022-10-31T06:47:37;14.50;;;6.72;;
37677;SDS011;23517;50.390;8.616;2022-10-31T06:50:23;10.13;;;5.32;;
37677;SDS011;23517;50.390;8.616;2022-10-31T06:52:53;15.50;;;5.82;;
37677;SDS011;23517;50.390;8.616;2022-10-31T06:55:22;17.95;;;6.40;;
37677;SDS011;23517;50.390;8.616;2022-10-31T06:57:51;14.38;;;4.53;;
37677;SDS011;23517;50.390;8.616;2022-10-31T07:00:22;15.85;;;4.50;;
37677;SDS011;23517;50.390;8.616;2022-10-31T07:05:24;12.95;;;5.47;;
37677;SDS011;23517;50.390;8.616;2022-10-31T07:07:52;12.15;;;4.50;;
37677;SDS011;23517;50.390;8.616;2022-10-31T07:10:28;11.25;;;4.45;;
37677;SDS011;23517;50.390;8.616;2022-10-31T07:13:03;11.88;;;4.35;;
37677;SDS011;23517;50.390;8.616;2022-10-31T07:15:35;8.10;;;4.43;;
37677;SDS011;23517;50.390;8.616;2022-10-31T07:18:04;7.88;;;4.25;;
37677;SDS011;23517;50.390;8.616;2022-10-31T07:20:33;9.70;;;3.92;;
37677;SDS011;23517;50.390;8.616;2022-10-31T07:23:00;8.55;;;4.30;;
37677;SDS011;23517;50.390;8.616;2022-10-31T07:25:27;8.00;;;4.50;;
37677;SDS011;23517;50.390;8.616;2022-10-31T07:27:54;13.07;;;3.92;;
37677;SDS011;23517;50.390;8.616;2022-10-31T07:30:22;6.03;;;3.95;;
37677;SDS011;23517;50.390;8.616;2022-10-31T07:32:49;8.32;;;3.60;;
37677;SDS011;23517;50.390;8.616;2022-10-31T07:35:20;10.55;;;4.38;;
37677;SDS011;23517;50.390;8.616;2022-10-31T07:37:50;11.57;;;4.75;;
37677;SDS011;23517;50.390;8.616;2022-10-31T07:40:18;6.90;;;4.07;;
37677;SDS011;23517;50.390;8.616;2022-10-31T07:42:46;9.85;;;4.65;;
37677;SDS011;23517;50.390;8.616;2022-10-31T07:45:17;9.70;;;4.43;;
37677;SDS011;23517;50.390;8.616;2022-10-31T07:47:47;7.55;;;3.72;;
37677;SDS011;23517;50.390;8.616;2022-10-31T07:50:20;10.88;;;3.97;;
37677;SDS011;23517;50.390;8.616;2022-10-31T07:53:02;6.25;;;3.95;;
37677;SDS011;23517;50.390;8.616;2022-10-31T07:55:34;10.93;;;3.90;;
37677;SDS011;23517;50.390;8.616;2022-10-31T07:58:02;8.27;;;3.65;;
37677;SDS011;23517;50.390;8.616;2022-10-31T08:00:33;13.85;;;4.30;;
37677;SDS011;23517;50.390;8.616;2022-10-31T08:03:05;12.40;;;4.55;;
37677;SDS011;23517;50.390;8.616;2022-10-31T08:05:35;9.85;;;4.07;;
37677;SDS011;23517;50.390;8.616;2022-10-31T08:08:05;7.78;;;4.18;;
37677;SDS011;23517;50.390;8.616;2022-10-31T08:10:33;10.48;;;4.60;;
37677;SDS011;23517;50.390;8.616;2022-10-31T08:13:01;11.52;;;4.35;;
37677;SDS011;23517;50.390;8.616;2022-10-31T08:15:31;9.80;;;4.55;;
37677;SDS011;23517;50.390;8.616;2022-10-31T08:18:00;13.68;;;5.35;;
37677;SDS011;23517;50.390;8.616;2022-10-31T08:20:28;15.13;;;5.40;;
37677;SDS011;23517;50.390;8.616;2022-10-31T08:22:59;13.43;;;5.53;;
37677;SDS011;23517;50.390;8.616;2022-10-31T08:25:28;19.70;;;7.00;;
37677;SDS011;23517;50.390;8.616;2022-10-31T08:28:03;17.02;;;7.35;;
37677;SDS011;23517;50.390;8.616;2022-10-31T08:30:31;19.52;;;6.95;;
37677;SDS011;23517;50.390;8.616;2022-10-31T08:33:05;13.75;;;5.55;;
37677;SDS011;23517;50.390;8.616;2022-10-31T08:35:36;9.98;;;5.50;;
37677;SDS011;23517;50.390;8.616;2022-10-31T08:38:03;15.27;;;6.07;;
37677;SDS011;23517;50.390;8.616;2022-10-31T08:40:31;15.60;;;6.07;;
37677;SDS011;23517;50.390;8.616;2022-10-31T08:43:00;10.57;;;5.80;;
37677;SDS011;23517;50.390;8.616;2022-10-31T08:45:30;17.15;;;6.43;;
37677;SDS011;23517;50.390;8.616;2022-10-31T08:48:03;15.18;;;5.55;;
37677;SDS011;23517;50.390;8.616;2022-10-31T08:50:35;15.57;;;5.38;;
37677;SDS011;23517;50.390;8.616;2022-10-31T08:53:04;16.38;;;5.43;;
37677;SDS011;23517;50.390;8.616;2022-10-31T08:55:34;17.67;;;5.55;;
37677;SDS011;23517;50.390;8.616;2022-10-31T08:58:02;13.32;;;5.55;;
37677;SDS011;23517;50.390;8.616;2022-10-31T09:00:32;16.20;;;5.68;;
37677;SDS011;23517;50.390;8.616;2022-10-31T09:03:03;16.70;;;5.68;;
37677;SDS011;23517;50.390;8.616;2022-10-31T09:05:37;12.70;;;5.68;;
37677;SDS011;23517;50.390;8.616;2022-10-31T09:08:04;14.57;;;5.80;;
37677;SDS011;23517;50.390;8.616;2022-10-31T09:10:38;11.85;;;5.85;;
37677;SDS011;23517;50.390;8.616;2022-10-31T09:13:06;9.77;;;5.60;;
37677;SDS011;23517;50.390;8.616;2022-10-31T09:15:39;10.95;;;5.82;;
37677;SDS011;23517;50.390;8.616;2022-10-31T09:18:07;24.70;;;8.88;;
37677;SDS011;23517;50.390;8.616;2022-10-31T09:20:36;18.35;;;6.80;;
37677;SDS011;23517;50.390;8.616;2022-10-31T09:23:05;16.15;;;7.75;;
37677;SDS011;23517;50.390;8.616;2022-10-31T09:25:38;20.50;;;7.97;;
37677;SDS011;23517;50.390;8.616;2022-10-31T09:28:05;22.27;;;9.35;;
37677;SDS011;23517;50.390;8.616;2022-10-31T09:30:34;16.70;;;8.10;;
37677;SDS011;23517;50.390;8.616;2022-10-31T09:33:02;21.30;;;9.35;;
37677;SDS011;23517;50.390;8.616;2022-10-31T09:35:33;19.92;;;8.80;;
37677;SDS011;23517;50.390;8.616;2022-10-31T09:38:01;13.45;;;8.77;;
37677;SDS011;23517;50.390;8.616;2022-10-31T09:40:34;14.15;;;9.40;;
37677;SDS011;23517;50.390;8.616;2022-10-31T09:43:11;17.98;;;9.20;;
37677;SDS011;23517;50.390;8.616;2022-10-31T09:56:27;17.10;;;10.57;;
37677;SDS011;23517;50.390;8.616;2022-10-31T09:58:55;20.90;;;11.20;;
37677;SDS011;23517;50.390;8.616;2022-10-31T10:01:41;27.63;;;11.35;;
37677;SDS011;23517;50.390;8.616;2022-10-31T10:04:57;17.58;;;10.20;;
37677;SDS011;23517;50.390;8.616;2022-10-31T10:07:11;18.60;;;11.57;;
37677;SDS011;23517;50.390;8.616;2022-10-31T10:09:48;23.35;;;11.25;;
37677;SDS011;23517;50.390;8.616;2022-10-31T10:15:31;19.83;;;10.00;;
37677;SDS011;23517;50.390;8.616;2022-10-31T10:18:31;17.52;;;9.63;;
37677;SDS011;23517;50.390;8.616;2022-10-31T10:24:09;17.52;;;9.32;;
37677;SDS011;23517;50.390;8.616;2022-10-31T10:29:39;12.18;;;8.63;;
37677;SDS011;23517;50.390;8.616;2022-10-31T10:32:22;14.30;;;9.32;;
37677;SDS011;23517;50.390;8.616;2022-10-31T10:35:07;15.52;;;9.55;;
37677;SDS011;23517;50.390;8.616;2022-10-31T10:37:46;16.77;;;8.10;;
37677;SDS011;23517;50.390;8.616;2022-10-31T10:40:17;15.65;;;9.02;;
37677;SDS011;23517;50.390;8.616;2022-10-31T10:42:55;18.42;;;9.57;;
37677;SDS011;23517;50.390;8.616;2022-10-31T10:46:04;15.38;;;8.40;;
37677;SDS011;23517;50.390;8.616;2022-10-31T10:49:10;18.77;;;8.70;;
37677;SDS011;23517;50.390;8.616;2022-10-31T10:55:17;18.45;;;7.60;;
37677;SDS011;23517;50.390;8.616;2022-10-31T10:58:08;15.68;;;8.05;;
37677;SDS011;23517;50.390;8.616;2022-10-31T11:00:43;19.52;;;7.47;;
37677;SDS011;23517;50.390;8.616;2022-10-31T11:03:16;13.80;;;7.05;;
37677;SDS011;23517;50.390;8.616;2022-10-31T11:05:48;17.10;;;7.25;;
37677;SDS011;23517;50.390;8.616;2022-10-31T11:08:24;18.33;;;7.00;;
37677;SDS011;23517;50.390;8.616;2022-10-31T11:11:08;14.68;;;7.75;;
37677;SDS011;23517;50.390;8.616;2022-10-31T11:13:43;16.60;;;7.30;;
37677;SDS011;23517;50.390;8.616;2022-10-31T11:19:13;14.30;;;7.53;;
37677;SDS011;23517;50.390;8.616;2022-10-31T11:21:52;12.55;;;6.90;;
37677;SDS011;23517;50.390;8.616;2022-10-31T11:24:20;17.33;;;7.03;;
37677;SDS011;23517;50.390;8.616;2022-10-31T11:26:51;14.15;;;7.07;;
37677;SDS011;23517;50.390;8.616;2022-10-31T11:29:29;16.33;;;6.45;;
37677;SDS011;23517;50.390;8.616;2022-10-31T11:31:56;10.85;;;5.60;;
37677;SDS011;23517;50.390;8.616;2022-10-31T11:34:58;13.57;;;6.70;;
37677;SDS011;23517;50.390;8.616;2022-10-31T11:37:27;14.90;;;6.85;;
37677;SDS011;23517;50.390;8.616;2022-10-31T11:39:57;11.00;;;6.10;;
37677;SDS011;23517;50.390;8.616;2022-10-31T11:42:28;17.05;;;7.28;;
37677;SDS011;23517;50.390;8.616;2022-10-31T11:45:13;14.55;;;5.72;;
37677;SDS011;23517;50.390;8.616;2022-10-31T11:47:57;12.63;;;6.55;;
37677;SDS011;23517;50.390;8.616;2022-10-31T11:50:32;14.70;;;5.68;;
37677;SDS011;23517;50.390;8.616;2022-10-31T11:53:11;10.93;;;5.45;;
37677;SDS011;23517;50.390;8.616;2022-10-31T11:55:45;15.60;;;6.25;;
37677;SDS011;23517;50.390;8.616;2022-10-31T11:58:31;13.95;;;6.05;;
37677;SDS011;23517;50.390;8.616;2022-10-31T12:00:57;12.48;;;6.10;;
37677;SDS011;23517;50.390;8.616;2022-10-31T12:06:38;12.75;;;5.30;;
37677;SDS011;23517;50.390;8.616;2022-10-31T12:09:26;13.25;;;6.43;;
37677;SDS011;23517;50.390;8.616;2022-10-31T12:15:06;24.00;;;7.78;;
37677;SDS011;23517;50.390;8.616;2022-10-31T12:26:28;14.77;;;5.90;;
37677;SDS011;23517;50.390;8.616;2022-10-31T12:29:40;13.25;;;5.45;;
37677;SDS011;23517;50.390;8.616;2022-10-31T12:38:48;14.77;;;5.20;;
37677;SDS011;23517;50.390;8.616;2022-10-31T12:42:15;13.75;;;5.35;;
37677;SDS011;23517;50.390;8.616;2022-10-31T12:59:35;11.45;;;4.95;;
37677;SDS011;23517;50.390;8.616;2022-10-31T13:02:22;34.08;;;6.63;;
37677;SDS011;23517;50.390;8.616;2022-10-31T13:05:04;15.57;;;6.13;;
37677;SDS011;23517;50.390;8.616;2022-10-31T13:10:31;13.20;;;4.72;;
37677;SDS011;23517;50.390;8.616;2022-10-31T13:13:13;13.70;;;5.70;;
37677;SDS011;23517;50.390;8.616;2022-10-31T13:16:15;11.43;;;4.63;;
37677;SDS011;23517;50.390;8.616;2022-10-31T13:18:52;16.80;;;5.00;;
37677;SDS011;23517;50.390;8.616;2022-10-31T13:21:27;14.25;;;5.28;;
37677;SDS011;23517;50.390;8.616;2022-10-31T13:24:27;16.23;;;5.10;;
37677;SDS011;23517;50.390;8.616;2022-10-31T13:27:17;18.17;;;4.30;;
37677;SDS011;23517;50.390;8.616;2022-10-31T13:29:57;14.85;;;5.22;;
37677;SDS011;23517;50.390;8.616;2022-10-31T13:35:48;16.90;;;4.90;;
37677;SDS011;23517;50.390;8.616;2022-10-31T13:38:54;20.15;;;5.70;;
37677;SDS011;23517;50.390;8.616;2022-10-31T13:42:03;10.45;;;5.05;;
37677;SDS011;23517;50.390;8.616;2022-10-31T13:44:44;10.05;;;4.03;;
37677;SDS011;23517;50.390;8.616;2022-10-31T13:47:29;12.57;;;4.50;;
37677;SDS011;23517;50.390;8.616;2022-10-31T13:55:48;9.77;;;4.55;;
37677;SDS011;23517;50.390;8.616;2022-10-31T13:58:33;6.30;;;3.50;;
37677;SDS011;23517;50.390;8.616;2022-10-31T14:03:38;9.50;;;4.13;;
37677;SDS011;23517;50.390;8.616;2022-10-31T14:06:40;12.27;;;4.32;;
37677;SDS011;23517;50.390;8.616;2022-10-31T14:09:24;11.80;;;4.65;;
37677;SDS011;23517;50.390;8.616;2022-10-31T14:11:59;6.80;;;4.40;;
37677;SDS011;23517;50.390;8.616;2022-10-31T14:14:32;13.02;;;4.25;;
37677;SDS011;23517;50.390;8.616;2022-10-31T14:17:12;12.77;;;4.57;;
37677;SDS011;23517;50.390;8.616;2022-10-31T14:19:58;10.52;;;4.82;;
37677;SDS011;23517;50.390;8.616;2022-10-31T14:22:37;15.40;;;4.55;;
37677;SDS011;23517;50.390;8.616;2022-10-31T14:28:00;11.30;;;4.78;;
37677;SDS011;23517;50.390;8.616;2022-10-31T14:30:50;12.40;;;4.55;;
37677;SDS011;23517;50.390;8.616;2022-10-31T14:33:23;12.23;;;4.20;;
37677;SDS011;23517;50.390;8.616;2022-10-31T14:38:30;9.30;;;3.80;;
37677;SDS011;23517;50.390;8.616;2022-10-31T14:41:43;13.45;;;3.90;;
37677;SDS011;23517;50.390;8.616;2022-10-31T14:50:44;8.43;;;4.15;;
37677;SDS011;23517;50.390;8.616;2022-10-31T14:53:29;10.25;;;4.20;;
37677;SDS011;23517;50.390;8.616;2022-10-31T14:56:00;19.30;;;4.18;;
37677;SDS011;23517;50.390;8.616;2022-10-31T15:01:19;9.77;;;3.92;;
37677;SDS011;23517;50.390;8.616;2022-10-31T15:04:04;10.13;;;4.22;;
37677;SDS011;23517;50.390;8.616;2022-10-31T15:07:33;10.50;;;4.18;;
37677;SDS011;23517;50.390;8.616;2022-10-31T15:09:55;12.90;;;4.13;;
37677;SDS011;23517;50.390;8.616;2022-10-31T15:12:29;8.00;;;3.75;;
37677;SDS011;23517;50.390;8.616;2022-10-31T15:15:19;9.05;;;3.83;;
37677;SDS011;23517;50.390;8.616;2022-10-31T15:17:53;10.60;;;4.20;;
37677;SDS011;23517;50.390;8.616;2022-10-31T15:20:26;13.45;;;4.68;;
37677;SDS011;23517;50.390;8.616;2022-10-31T15:23:02;12.82;;;3.72;;
37677;SDS011;23517;50.390;8.616;2022-10-31T15:25:30;12.77;;;4.07;;
37677;SDS011;23517;50.390;8.616;2022-10-31T15:28:00;9.48;;;3.83;;
37677;SDS011;23517;50.390;8.616;2022-10-31T15:30:29;10.90;;;4.40;;
37677;SDS011;23517;50.390;8.616;2022-10-31T15:32:56;12.18;;;4.05;;
37677;SDS011;23517;50.390;8.616;2022-10-31T15:35:28;11.73;;;3.88;;
37677;SDS011;23517;50.390;8.616;2022-10-31T15:37:57;10.77;;;4.05;;
37677;SDS011;23517;50.390;8.616;2022-10-31T15:40:26;14.07;;;4.00;;
37677;SDS011;23517;50.390;8.616;2022-10-31T15:42:55;12.35;;;3.85;;
37677;SDS011;23517;50.390;8.616;2022-10-31T15:45:27;16.88;;;3.97;;
37677;SDS011;23517;50.390;8.616;2022-10-31T15:50:37;16.42;;;4.25;;
37677;SDS011;23517;50.390;8.616;2022-10-31T15:53:14;9.77;;;3.60;;
37677;SDS011;23517;50.390;8.616;2022-10-31T15:55:54;13.68;;;3.75;;
37677;SDS011;23517;50.390;8.616;2022-10-31T15:58:24;12.45;;;3.58;;
37677;SDS011;23517;50.390;8.616;2022-10-31T16:00:59;13.45;;;3.63;;
37677;SDS011;23517;50.390;8.616;2022-10-31T16:03:32;18.02;;;3.97;;
37677;SDS011;23517;50.390;8.616;2022-10-31T16:06:03;15.55;;;4.00;;
37677;SDS011;23517;50.390;8.616;2022-10-31T16:08:35;18.73;;;3.90;;
37677;SDS011;23517;50.390;8.616;2022-10-31T16:11:18;15.82;;;3.33;;
37677;SDS011;23517;50.390;8.616;2022-10-31T16:16:41;8.75;;;3.65;;
37677;SDS011;23517;50.390;8.616;2022-10-31T16:19:18;12.25;;;3.65;;
37677;SDS011;23517;50.390;8.616;2022-10-31T16:22:01;10.48;;;4.00;;
37677;SDS011;23517;50.390;8.616;2022-10-31T16:24:32;9.75;;;4.30;;
37677;SDS011;23517;50.390;8.616;2022-10-31T16:27:19;13.30;;;3.88;;
37677;SDS011;23517;50.390;8.616;2022-10-31T16:29:58;17.17;;;4.43;;
37677;SDS011;23517;50.390;8.616;2022-10-31T16:32:33;10.73;;;3.80;;
37677;SDS011;23517;50.390;8.616;2022-10-31T16:37:38;13.57;;;4.10;;
37677;SDS011;23517;50.390;8.616;2022-10-31T16:40:07;14.82;;;4.47;;
37677;SDS011;23517;50.390;8.616;2022-10-31T16:42:41;15.77;;;3.85;;
37677;SDS011;23517;50.390;8.616;2022-10-31T16:45:14;11.90;;;4.10;;
37677;SDS011;23517;50.390;8.616;2022-10-31T16:47:47;10.00;;;4.03;;
37677;SDS011;23517;50.390;8.616;2022-10-31T16:50:16;12.88;;;4.38;;
37677;SDS011;23517;50.390;8.616;2022-10-31T16:52:52;14.30;;;4.13;;
37677;SDS011;23517;50.390;8.616;2022-10-31T16:55:41;11.35;;;3.55;;
37677;SDS011;23517;50.390;8.616;2022-10-31T16:58:16;24.15;;;4.63;;
37677;SDS011;23517;50.390;8.616;2022-10-31T17:00:48;87.43;;;43.60;;
37677;SDS011;23517;50.390;8.616;2022-10-31T17:03:15;52.35;;;26.23;;
37677;SDS011;23517;50.390;8.616;2022-10-31T17:05:42;39.78;;;21.45;;
37677;SDS011;23517;50.390;8.616;2022-10-31T17:08:09;33.75;;;16.20;;
37677;SDS011;23517;50.390;8.616;2022-10-31T17:10:35;23.75;;;14.18;;
37677;SDS011;23517;50.390;8.616;2022-10-31T17:13:03;20.17;;;8.68;;
37677;SDS011;23517;50.390;8.616;2022-10-31T17:15:38;18.05;;;6.85;;
37677;SDS011;23517;50.390;8.616;2022-10-31T17:18:13;14.60;;;6.10;;
37677;SDS011;23517;50.390;8.616;2022-10-31T17:20:41;13.13;;;5.68;;